createdAt,value
2023-04-01T00:00:05.027Z,8.72
2023-04-01T00:02:39.212Z,8.62
2023-04-01T00:05:07.353Z,8.59
2023-04-01T00:07:34.709Z,8.59
2023-04-01T00:10:02.664Z,8.60
2023-04-01T00:12:29.706Z,8.65
2023-04-01T00:14:56.790Z,8.68
2023-04-01T00:17:23.968Z,8.64
2023-04-01T00:19:50.948Z,8.68
2023-04-01T00:22:17.921Z,8.69
2023-04-01T00:24:44.960Z,8.70
2023-04-01T00:27:12.037Z,8.67
2023-04-01T00:29:39.041Z,8.74
2023-04-01T00:32:06.439Z,8.65
2023-04-01T00:34:33.461Z,8.65
2023-04-01T00:37:00.429Z,8.63
2023-04-01T00:39:31.393Z,8.61
2023-04-01T00:41:59.776Z,8.61
2023-04-01T00:44:30.842Z,8.66
2023-04-01T00:46:58.335Z,8.64
2023-04-01T00:49:50.635Z,8.62
2023-04-01T00:52:23.654Z,8.63
2023-04-01T00:54:57.777Z,8.55
2023-04-01T00:57:32.010Z,8.55
2023-04-01T01:00:00.306Z,8.49
2023-04-01T01:02:27.550Z,8.45
2023-04-01T01:04:54.547Z,8.46
2023-04-01T01:07:48.053Z,8.47
2023-04-01T01:10:34.932Z,8.56
2023-04-01T01:13:35.320Z,8.51
2023-04-01T01:16:27.286Z,8.54
2023-04-01T01:19:49.057Z,8.56
2023-04-01T01:22:45.450Z,8.53
2023-04-01T01:25:31.163Z,8.49
2023-04-01T01:28:37.295Z,8.49
2023-04-01T01:32:02.130Z,8.50
2023-04-01T01:34:44.918Z,8.55
2023-04-01T01:37:18.960Z,8.51
2023-04-01T01:39:54.556Z,8.46
2023-04-01T01:42:23.941Z,8.41
2023-04-01T01:44:53.277Z,8.30
2023-04-01T01:47:23.230Z,8.34
2023-04-01T01:49:52.352Z,8.39
2023-04-01T01:52:19.449Z,8.45
2023-04-01T01:54:56.078Z,8.50
2023-04-01T01:57:35.338Z,8.54
2023-04-01T02:00:14.701Z,8.60
2023-04-01T02:02:47.551Z,8.65
2023-04-01T02:05:22.934Z,8.65
2023-04-01T02:08:01.750Z,8.56
2023-04-01T02:10:32.591Z,8.44
2023-04-01T02:13:05.205Z,8.34
2023-04-01T02:15:35.085Z,8.31
2023-04-01T02:18:03.244Z,8.17
2023-04-01T02:20:31.498Z,8.00
2023-04-01T02:23:00.710Z,7.89
2023-04-01T02:25:36.824Z,7.75
2023-04-01T02:28:07.539Z,7.71
2023-04-01T02:30:37.798Z,7.68
2023-04-01T02:33:06.721Z,7.67
2023-04-01T02:35:37.072Z,7.69
2023-04-01T02:38:06.106Z,7.60
2023-04-01T02:40:51.226Z,7.50
2023-04-01T02:43:19.993Z,7.63
2023-04-01T02:45:46.982Z,7.50
2023-04-01T02:48:15.142Z,7.49
2023-04-01T02:50:42.206Z,7.46
2023-04-01T02:53:09.299Z,7.65
2023-04-01T02:55:36.503Z,7.61
2023-04-01T02:58:03.673Z,7.68
2023-04-01T03:00:31.246Z,7.82
2023-04-01T03:02:58.370Z,7.74
2023-04-01T03:05:25.536Z,7.83
2023-04-01T03:07:52.753Z,7.81
2023-04-01T03:10:19.841Z,7.82
2023-04-01T03:12:47.045Z,7.81
2023-04-01T03:15:15.742Z,7.75
2023-04-01T03:17:44.053Z,7.74
2023-04-01T03:20:12.583Z,7.71
2023-04-01T03:22:42.674Z,7.72
2023-04-01T03:25:10.986Z,7.65
2023-04-01T03:27:38.984Z,7.77
2023-04-01T03:30:07.832Z,7.75
2023-04-01T03:32:41.083Z,7.85
2023-04-01T03:35:10.640Z,7.88
2023-04-01T03:37:37.764Z,7.85
2023-04-01T03:40:05.988Z,7.75
2023-04-01T03:42:33.485Z,7.79
2023-04-01T03:45:00.755Z,7.71
2023-04-01T03:47:28.135Z,7.72
2023-04-01T03:49:55.661Z,7.73
2023-04-01T03:52:22.878Z,7.69
2023-04-01T03:54:50.235Z,7.65
2023-04-01T03:57:17.497Z,7.63
2023-04-01T03:59:44.699Z,7.65
2023-04-01T04:02:11.697Z,7.65
2023-04-01T04:04:39.013Z,7.65
2023-04-01T04:07:06.095Z,7.54
2023-04-01T04:09:50.512Z,7.60
2023-04-01T04:12:17.490Z,7.61
2023-04-01T04:14:44.548Z,7.60
2023-04-01T04:17:17.081Z,7.61
2023-04-01T04:19:44.996Z,7.66
2023-04-01T04:22:12.795Z,7.69
2023-04-01T04:24:40.199Z,7.73
2023-04-01T04:27:10.064Z,7.74
2023-04-01T04:29:44.072Z,7.70
2023-04-01T04:32:11.127Z,7.73
2023-04-01T04:34:38.757Z,7.74
2023-04-01T04:37:06.033Z,7.78
2023-04-01T04:39:36.241Z,7.81
2023-04-01T04:42:03.748Z,7.85
2023-04-01T04:44:30.939Z,7.87
2023-04-01T04:46:58.684Z,7.87
2023-04-01T04:49:26.714Z,7.84
2023-04-01T04:51:53.909Z,7.90
2023-04-01T04:54:24.600Z,7.89
2023-04-01T04:56:55.374Z,7.86
2023-04-01T04:59:24.387Z,7.85
2023-04-01T05:01:59.483Z,7.84
2023-04-01T05:04:26.431Z,7.74
2023-04-01T05:06:53.416Z,7.67
2023-04-01T05:09:20.546Z,7.62
2023-04-01T05:11:47.556Z,7.62
2023-04-01T05:14:16.608Z,7.63
2023-04-01T05:16:50.251Z,7.64
2023-04-01T05:19:17.327Z,7.65
2023-04-01T05:21:44.306Z,7.61
2023-04-01T05:24:11.447Z,7.59
2023-04-01T05:26:39.262Z,7.59
2023-04-01T05:29:06.859Z,7.58
2023-04-01T05:31:34.061Z,7.66
2023-04-01T05:34:01.630Z,7.70
2023-04-01T05:36:28.643Z,7.64
2023-04-01T05:38:57.441Z,7.61
2023-04-01T05:41:26.588Z,7.63
2023-04-01T05:43:53.830Z,7.72
2023-04-01T05:46:39.830Z,7.82
2023-04-01T05:49:20.315Z,7.92
2023-04-01T05:51:48.232Z,8.00
2023-04-01T05:54:15.349Z,8.00
2023-04-01T05:56:42.886Z,8.05
2023-04-01T05:59:12.161Z,8.06
2023-04-01T06:01:39.720Z,8.04
2023-04-01T06:04:07.101Z,8.10
2023-04-01T06:06:38.669Z,8.11
2023-04-01T06:09:18.194Z,8.19
2023-04-01T06:12:09.604Z,8.20
2023-04-01T06:14:58.562Z,8.21
2023-04-01T06:17:46.776Z,8.26
2023-04-01T06:20:45.216Z,8.31
2023-04-01T06:23:27.190Z,8.34
2023-04-01T06:26:03.465Z,8.46
2023-04-01T06:28:33.228Z,8.47
2023-04-01T06:31:45.878Z,8.49
2023-04-01T06:34:24.952Z,8.61
2023-04-01T06:37:06.656Z,8.73
2023-04-01T06:39:48.585Z,8.70
2023-04-01T06:42:29.816Z,8.71
2023-04-01T06:45:32.239Z,8.78
2023-04-01T06:48:31.033Z,8.77
2023-04-01T06:51:52.768Z,8.76
2023-04-01T06:54:48.653Z,8.92
2023-04-01T06:57:45.930Z,8.84
2023-04-01T07:00:19.737Z,8.79
2023-04-01T07:02:59.125Z,8.77
2023-04-01T07:05:36.858Z,8.95
2023-04-01T07:08:10.308Z,8.81
2023-04-01T07:10:55.828Z,8.81
2023-04-01T07:13:58.717Z,8.89
2023-04-01T07:16:42.888Z,8.98
2023-04-01T07:19:22.228Z,9.06
2023-04-01T07:22:14.461Z,8.95
2023-04-01T07:25:16.145Z,8.96
2023-04-01T07:27:47.222Z,9.07
2023-04-01T07:30:21.275Z,9.13
2023-04-01T07:33:14.405Z,9.24
2023-04-01T07:36:00.842Z,9.08
2023-04-01T07:39:11.453Z,9.16
2023-04-01T07:41:57.588Z,9.08
2023-04-01T07:44:48.652Z,9.23
2023-04-01T07:47:42.645Z,9.23
2023-04-01T07:50:29.978Z,9.19
2023-04-01T07:53:00.298Z,9.19
2023-04-01T07:55:51.236Z,9.05
2023-04-01T07:58:47.646Z,9.04
2023-04-01T08:01:47.291Z,8.92
2023-04-01T08:04:30.064Z,9.07
2023-04-01T08:07:21.700Z,9.19
2023-04-01T08:10:24.286Z,9.09
2023-04-01T08:13:45.414Z,9.11
2023-04-01T08:17:09.695Z,9.21
2023-04-01T08:19:53.018Z,9.37
2023-04-01T08:22:41.794Z,9.37
2023-04-01T08:25:29.350Z,9.37
2023-04-01T08:28:09.365Z,9.32
2023-04-01T08:30:56.004Z,9.34
2023-04-01T08:33:29.758Z,9.36
2023-04-01T08:36:11.392Z,9.24
2023-04-01T08:38:53.221Z,9.34
2023-04-01T08:41:57.490Z,9.33
2023-04-01T08:45:16.248Z,9.23
2023-04-01T08:48:19.704Z,9.20
2023-04-01T08:51:23.619Z,9.04
2023-04-01T08:54:05.420Z,8.95
2023-04-01T08:57:13.387Z,8.83
2023-04-01T09:00:20.373Z,8.68
2023-04-01T09:03:51.651Z,8.51
2023-04-01T09:06:27.521Z,8.41
2023-04-01T09:09:15.252Z,8.31
2023-04-01T09:12:16.747Z,8.18
2023-04-01T09:14:57.750Z,8.21
2023-04-01T09:17:38.872Z,8.17
2023-04-01T09:21:05.857Z,8.03
2023-04-01T09:24:03.446Z,8.04
2023-04-01T09:26:44.156Z,8.02
2023-04-01T09:29:52.658Z,8.03
2023-04-01T09:32:44.051Z,8.00
2023-04-01T09:35:48.734Z,8.09
2023-04-01T09:38:31.362Z,8.07
2023-04-01T09:41:32.675Z,8.09
2023-04-01T09:44:49.290Z,8.07
2023-04-01T09:48:15.549Z,8.12
2023-04-01T09:51:02.199Z,8.19
2023-04-01T09:54:13.475Z,8.21
2023-04-01T09:57:00.044Z,8.20
2023-04-01T10:00:07.512Z,8.21
2023-04-01T10:03:39.892Z,8.18
2023-04-01T10:06:21.893Z,8.19
2023-04-01T10:09:07.244Z,8.27
2023-04-01T10:12:01.356Z,8.35
2023-04-01T10:15:06.205Z,8.44
2023-04-01T10:17:46.048Z,8.49
2023-04-01T10:20:28.827Z,8.46
2023-04-01T10:23:27.066Z,8.42
2023-04-01T10:26:43.174Z,8.37
2023-04-01T10:30:20.569Z,8.34
2023-04-01T10:33:18.959Z,8.36
2023-04-01T10:36:59.793Z,8.38
2023-04-01T10:39:59.586Z,8.38
2023-04-01T10:43:32.194Z,8.38
2023-04-01T10:46:50.522Z,8.34
2023-04-01T10:50:01.185Z,8.26
2023-04-01T10:53:27.995Z,8.24
2023-04-01T10:56:31.217Z,8.26
2023-04-01T11:00:02.526Z,8.32
2023-04-01T11:03:15.488Z,8.28
2023-04-01T11:06:55.022Z,8.30
2023-04-01T11:09:57.601Z,8.29
2023-04-01T11:12:59.056Z,8.26
2023-04-01T11:16:07.544Z,8.28
2023-04-01T11:19:05.625Z,8.29
2023-04-01T11:21:51.051Z,8.28
2023-04-01T11:25:01.404Z,8.33
2023-04-01T11:28:37.240Z,8.39
2023-04-01T11:31:34.955Z,8.49
2023-04-01T11:34:13.352Z,8.47
2023-04-01T11:36:43.853Z,8.49
2023-04-01T11:39:44.293Z,8.54
2023-04-01T11:42:44.993Z,8.60
2023-04-01T11:46:11.557Z,8.63
2023-04-01T11:48:56.926Z,8.69
2023-04-01T11:52:17.434Z,8.68
2023-04-01T11:54:53.116Z,8.72
2023-04-01T11:58:16.230Z,8.72
2023-04-01T12:00:54.453Z,8.70
2023-04-01T12:03:44.641Z,8.72
2023-04-01T12:06:30.649Z,8.67
2023-04-01T12:09:22.390Z,8.68
2023-04-01T12:12:18.769Z,8.72
2023-04-01T12:15:12.751Z,8.73
2023-04-01T12:18:06.045Z,8.74
2023-04-01T12:20:55.982Z,8.83
2023-04-01T12:23:56.542Z,8.83
2023-04-01T12:26:38.429Z,8.75
2023-04-01T12:29:26.208Z,8.73
2023-04-01T12:32:04.841Z,8.74
2023-04-01T12:35:03.187Z,8.73
2023-04-01T12:37:54.784Z,8.73
2023-04-01T12:40:32.464Z,8.75
2023-04-01T12:43:28.781Z,8.84
2023-04-01T12:46:28.067Z,8.89
2023-04-01T12:49:22.024Z,8.90
2023-04-01T12:51:58.639Z,8.88
2023-04-01T12:55:23.037Z,8.85
2023-04-01T12:57:57.138Z,8.79
2023-04-01T13:01:06.619Z,8.73
2023-04-01T13:04:14.396Z,8.74
2023-04-01T13:07:29.540Z,8.72
2023-04-01T13:10:26.682Z,8.69
2023-04-01T13:12:59.356Z,8.68
2023-04-01T13:16:06.570Z,8.66
2023-04-01T13:19:07.201Z,8.60
2023-04-01T13:21:58.052Z,8.59
2023-04-01T13:24:36.819Z,8.62
2023-04-01T13:27:15.981Z,8.60
2023-04-01T13:29:49.545Z,8.56
2023-04-01T13:32:56.746Z,8.54
2023-04-01T13:36:11.980Z,8.48
2023-04-01T13:38:59.655Z,8.45
2023-04-01T13:41:50.905Z,8.41
2023-04-01T13:44:37.900Z,8.40
2023-04-01T13:47:59.169Z,8.35
2023-04-01T13:51:16.550Z,8.33
2023-04-01T13:54:02.072Z,8.34
2023-04-01T13:56:35.081Z,8.40
2023-04-01T13:59:49.378Z,8.33
2023-04-01T14:02:34.725Z,8.30
2023-04-01T14:05:10.762Z,8.31
2023-04-01T14:08:16.499Z,8.25
2023-04-01T14:11:17.904Z,8.26
2023-04-01T14:14:28.027Z,8.29
2023-04-01T14:17:37.144Z,8.39
2023-04-01T14:20:34.404Z,8.45
2023-04-01T14:23:24.438Z,8.50
2023-04-01T14:26:28.653Z,8.50
2023-04-01T14:29:01.363Z,8.46
2023-04-01T14:31:49.354Z,8.40
2023-04-01T14:35:16.321Z,8.36
2023-04-01T14:37:55.669Z,8.35
2023-04-01T14:40:55.470Z,8.41
2023-04-01T14:43:53.154Z,8.36
2023-04-01T14:46:42.165Z,8.31
2023-04-01T14:49:37.160Z,8.28
2023-04-01T14:52:22.696Z,8.28
2023-04-01T14:54:51.504Z,8.24
2023-04-01T14:57:31.856Z,8.20
2023-04-01T15:00:16.524Z,8.19
2023-04-01T15:03:04.790Z,8.20
2023-04-01T15:05:52.965Z,8.21
2023-04-01T15:08:31.329Z,8.24
2023-04-01T15:11:24.706Z,8.21
2023-04-01T15:14:21.878Z,8.18
2023-04-01T15:17:59.415Z,8.14
2023-04-01T15:21:26.253Z,8.15
2023-04-01T15:24:20.345Z,8.11
2023-04-01T15:27:17.344Z,8.15
2023-04-01T15:30:02.337Z,8.15
2023-04-01T15:33:24.259Z,8.16
2023-04-01T15:36:21.553Z,8.17
2023-04-01T15:39:12.901Z,8.29
2023-04-01T15:42:25.033Z,8.32
2023-04-01T15:45:25.373Z,8.39
2023-04-01T15:48:27.074Z,8.32
2023-04-01T15:51:49.483Z,8.36
2023-04-01T15:55:04.803Z,8.35
2023-04-01T15:57:55.445Z,8.33
2023-04-01T16:00:41.768Z,8.35
2023-04-01T16:03:24.344Z,8.36
2023-04-01T16:06:23.097Z,8.35
2023-04-01T16:09:22.837Z,8.39
2023-04-01T16:12:16.528Z,8.47
2023-04-01T16:15:00.225Z,8.39
2023-04-01T16:17:45.996Z,8.31
2023-04-01T16:20:51.676Z,8.30
2023-04-01T16:23:42.001Z,8.28
2023-04-01T16:26:32.608Z,8.22
2023-04-01T16:29:36.366Z,8.17
2023-04-01T16:32:35.255Z,8.20
2023-04-01T16:35:36.213Z,8.21
2023-04-01T16:39:24.035Z,8.17
2023-04-01T16:42:15.620Z,8.15
2023-04-01T16:45:04.371Z,8.15
2023-04-01T16:47:40.311Z,8.18
2023-04-01T16:50:21.816Z,8.17
2023-04-01T16:53:16.961Z,8.19
2023-04-01T16:55:57.879Z,8.21
2023-04-01T16:58:38.316Z,8.19
2023-04-01T17:01:52.884Z,8.16
2023-04-01T17:04:45.955Z,8.17
2023-04-01T17:07:30.822Z,8.12
2023-04-01T17:10:47.042Z,8.03
2023-04-01T17:13:48.162Z,8.04
2023-04-01T17:16:48.340Z,8.05
2023-04-01T17:19:27.274Z,7.98
2023-04-01T17:22:38.504Z,7.94
2023-04-01T17:25:21.800Z,7.94
2023-04-01T17:28:31.582Z,7.97
2023-04-01T17:31:35.498Z,7.94
2023-04-01T17:34:30.131Z,7.92
2023-04-01T17:37:33.001Z,7.87
2023-04-01T17:40:30.965Z,7.90
2023-04-01T17:43:26.783Z,7.94
2023-04-01T17:46:02.723Z,7.89
2023-04-01T17:48:51.139Z,7.86
2023-04-01T17:51:36.809Z,7.90
2023-04-01T17:54:26.253Z,7.83
2023-04-01T17:57:24.227Z,7.78
2023-04-01T18:00:25.390Z,7.79
2023-04-01T18:03:02.122Z,7.75
2023-04-01T18:05:44.345Z,7.71
2023-04-01T18:08:40.658Z,7.90
2023-04-01T18:11:45.453Z,7.99
2023-04-01T18:14:47.267Z,7.92
2023-04-01T18:17:45.127Z,7.90
2023-04-01T18:20:25.665Z,7.92
2023-04-01T18:23:07.733Z,7.92
2023-04-01T18:25:49.593Z,7.90
2023-04-01T18:28:38.484Z,7.93
2023-04-01T18:31:12.353Z,7.93
2023-04-01T18:33:54.209Z,7.88
2023-04-01T18:36:47.579Z,7.89
2023-04-01T18:39:29.612Z,7.92
2023-04-01T18:42:47.285Z,7.93
2023-04-01T18:45:27.628Z,7.92
2023-04-01T18:48:44.962Z,7.84
2023-04-01T18:51:47.781Z,7.81
2023-04-01T18:54:34.523Z,7.84
2023-04-01T18:57:43.992Z,7.84
2023-04-01T19:00:46.292Z,7.90
2023-04-01T19:03:50.546Z,7.89
2023-04-01T19:06:31.285Z,7.94
2023-04-01T19:09:23.823Z,7.84
2023-04-01T19:12:35.291Z,7.88
2023-04-01T19:15:38.473Z,7.92
2023-04-01T19:19:12.130Z,8.04
2023-04-01T19:22:20.939Z,7.89
2023-04-01T19:25:02.638Z,7.92
2023-04-01T19:27:43.726Z,7.75
2023-04-01T19:30:16.478Z,7.69
2023-04-01T19:33:16.724Z,7.55
2023-04-01T19:36:12.654Z,7.54
2023-04-01T19:39:29.579Z,7.40
2023-04-01T19:42:17.790Z,7.45
2023-04-01T19:45:15.208Z,7.37
2023-04-01T19:48:19.527Z,7.50
2023-04-01T19:51:11.590Z,7.43
2023-04-01T19:53:54.171Z,7.56
2023-04-01T19:56:24.735Z,7.58
2023-04-01T19:59:16.050Z,7.61
2023-04-01T20:02:09.880Z,7.59
2023-04-01T20:04:48.856Z,7.59
2023-04-01T20:08:09.827Z,7.70
2023-04-01T20:10:53.165Z,7.63
2023-04-01T20:13:29.678Z,7.59
2023-04-01T20:16:04.802Z,7.64
2023-04-01T20:18:50.439Z,7.65
2023-04-01T20:21:46.973Z,7.56
2023-04-01T20:24:33.689Z,7.63
2023-04-01T20:27:13.319Z,7.63
2023-04-01T20:30:05.117Z,7.63
2023-04-01T20:32:46.374Z,7.64
2023-04-01T20:35:36.956Z,7.64
2023-04-01T20:38:58.022Z,7.60
2023-04-01T20:41:28.690Z,7.62
2023-04-01T20:44:15.682Z,7.65
2023-04-01T20:47:39.196Z,7.69
2023-04-01T20:50:30.569Z,7.72
2023-04-01T20:53:18.460Z,7.81
2023-04-01T20:55:48.557Z,7.81
2023-04-01T20:59:21.724Z,7.70
2023-04-01T21:02:03.229Z,7.74
2023-04-01T21:05:11.446Z,7.81
2023-04-01T21:07:47.198Z,7.86
2023-04-01T21:10:46.730Z,7.82
2023-04-01T21:13:42.441Z,7.91
2023-04-01T21:16:28.119Z,7.97
2023-04-01T21:19:35.474Z,7.92
2023-04-01T21:22:29.274Z,7.97
2023-04-01T21:25:38.406Z,7.94
2023-04-01T21:28:11.201Z,8.01
2023-04-01T21:31:18.509Z,8.01
2023-04-01T21:34:09.710Z,7.96
2023-04-01T21:36:46.116Z,7.99
2023-04-01T21:39:43.969Z,8.02
2023-04-01T21:42:35.865Z,8.03
2023-04-01T21:45:08.820Z,8.02
2023-04-01T21:48:17.563Z,7.95
2023-04-01T21:50:59.452Z,7.92
2023-04-01T21:53:57.605Z,7.99
2023-04-01T21:57:23.675Z,8.06
2023-04-01T22:00:27.809Z,7.98
2023-04-01T22:03:27.358Z,8.05
2023-04-01T22:06:18.969Z,8.10
2023-04-01T22:08:55.112Z,8.14
2023-04-01T22:11:50.596Z,8.12
2023-04-01T22:14:45.747Z,8.05
2023-04-01T22:17:33.810Z,8.03
2023-04-01T22:20:34.911Z,8.08
2023-04-01T22:23:26.389Z,8.09
2023-04-01T22:26:35.037Z,7.99
2023-04-01T22:29:12.186Z,7.95
2023-04-01T22:31:52.011Z,8.04
2023-04-01T22:34:48.624Z,8.09
2023-04-01T22:37:28.473Z,8.09
2023-04-01T22:40:21.231Z,8.06
2023-04-01T22:42:58.338Z,8.00
2023-04-01T22:45:49.230Z,8.04
2023-04-01T22:48:54.837Z,8.03
2023-04-01T22:51:41.399Z,8.07
2023-04-01T22:54:33.727Z,8.08
2023-04-01T22:57:20.519Z,8.04
2023-04-01T23:00:07.928Z,8.03
2023-04-01T23:02:41.100Z,8.05
2023-04-01T23:05:14.837Z,8.00
2023-04-01T23:08:37.546Z,8.01
2023-04-01T23:11:09.376Z,8.02
2023-04-01T23:13:43.032Z,7.98
2023-04-01T23:16:11.625Z,7.93
2023-04-01T23:18:55.349Z,7.97
2023-04-01T23:21:47.673Z,7.99
2023-04-01T23:24:22.027Z,7.93
2023-04-01T23:27:03.376Z,7.96
2023-04-01T23:29:30.685Z,8.01
2023-04-01T23:32:00.807Z,7.96
2023-04-01T23:34:33.878Z,8.03
2023-04-01T23:37:17.669Z,7.99
2023-04-01T23:39:57.510Z,7.97
2023-04-01T23:42:41.769Z,8.00
2023-04-01T23:45:20.911Z,7.90
2023-04-01T23:47:50.526Z,7.91
2023-04-01T23:50:25.402Z,7.91
2023-04-01T23:53:04.190Z,7.97
2023-04-01T23:55:35.214Z,7.92
2023-04-01T23:58:28.860Z,7.93
